createdAt,value
2018-05-15T00:00:54.668Z,0
2018-05-15T00:01:55.382Z,0
2018-05-15T00:02:56.100Z,0
2018-05-15T00:03:56.826Z,0
2018-05-15T00:04:57.542Z,0
2018-05-15T00:05:58.262Z,0
2018-05-15T00:06:58.976Z,0
2018-05-15T00:07:59.702Z,0
2018-05-15T00:09:00.426Z,0
2018-05-15T00:10:01.145Z,0
2018-05-15T00:11:01.866Z,0
2018-05-15T00:12:02.597Z,0
2018-05-15T00:13:03.303Z,0
2018-05-15T00:14:04.027Z,0
2018-05-15T00:15:04.742Z,0
2018-05-15T00:16:05.456Z,0
2018-05-15T00:17:06.170Z,0
2018-05-15T00:18:06.883Z,0
2018-05-15T00:19:07.597Z,0
2018-05-15T00:20:08.312Z,0
2018-05-15T00:21:09.025Z,0
2018-05-15T00:22:09.739Z,0
2018-05-15T00:23:10.457Z,0
2018-05-15T00:24:11.177Z,0
2018-05-15T00:25:11.901Z,0
2018-05-15T00:26:12.617Z,0
2018-05-15T00:27:13.332Z,0
2018-05-15T00:28:14.058Z,0
2018-05-15T00:29:14.773Z,0
2018-05-15T00:30:15.496Z,0
2018-05-15T00:31:16.209Z,0
2018-05-15T00:32:16.931Z,0
2018-05-15T00:33:17.647Z,0
2018-05-15T00:34:18.371Z,0
2018-05-15T00:35:19.083Z,0
2018-05-15T00:36:19.796Z,0
2018-05-15T00:37:20.509Z,0
2018-05-15T00:38:21.222Z,0
2018-05-15T00:39:21.936Z,0
2018-05-15T00:40:22.646Z,0
2018-05-15T00:41:23.361Z,0
2018-05-15T00:42:24.086Z,0
2018-05-15T00:43:24.798Z,0
2018-05-15T00:44:25.511Z,0
2018-05-15T00:45:26.226Z,0
2018-05-15T00:46:26.937Z,0
2018-05-15T00:47:27.651Z,0
2018-05-15T00:48:28.366Z,0
2018-05-15T00:49:29.079Z,0
2018-05-15T00:50:29.792Z,0
2018-05-15T00:51:30.507Z,0
2018-05-15T00:52:31.218Z,0
2018-05-15T00:53:31.938Z,0
2018-05-15T00:54:32.667Z,0
2018-05-15T00:55:33.384Z,0
2018-05-15T00:56:34.101Z,0
2018-05-15T00:57:34.816Z,0
2018-05-15T00:58:35.529Z,0
2018-05-15T00:59:36.245Z,0
2018-05-15T01:00:36.958Z,0
2018-05-15T01:01:37.683Z,0
2018-05-15T01:02:38.399Z,0
2018-05-15T01:03:39.111Z,0
2018-05-15T01:04:39.835Z,0
2018-05-15T01:05:40.547Z,0
2018-05-15T01:06:41.278Z,0
2018-05-15T01:07:42.002Z,0
2018-05-15T01:08:42.717Z,0
2018-05-15T01:09:43.430Z,0
2018-05-15T01:10:44.145Z,0
2018-05-15T01:11:44.859Z,0
2018-05-15T01:12:45.572Z,0
2018-05-15T01:13:46.291Z,0
2018-05-15T01:14:47.001Z,0
2018-05-15T01:15:47.716Z,0
2018-05-15T01:16:48.431Z,0
2018-05-15T01:17:49.156Z,0
2018-05-15T01:18:49.883Z,0
2018-05-15T01:19:50.595Z,0
2018-05-15T01:20:51.324Z,0
2018-05-15T01:21:52.050Z,0
2018-05-15T01:22:52.765Z,0
2018-05-15T01:23:53.477Z,0
2018-05-15T01:24:54.191Z,0
2018-05-15T01:25:54.904Z,0
2018-05-15T01:26:55.630Z,0
2018-05-15T01:27:56.345Z,0
2018-05-15T01:28:57.059Z,0
2018-05-15T01:29:57.774Z,0
2018-05-15T01:30:58.501Z,0
2018-05-15T01:31:59.219Z,0
2018-05-15T01:32:59.946Z,0
2018-05-15T01:34:00.659Z,0
2018-05-15T01:35:01.383Z,0
2018-05-15T01:36:02.101Z,0
2018-05-15T01:37:02.810Z,0
2018-05-15T01:38:03.523Z,0
2018-05-15T01:39:04.245Z,0
2018-05-15T01:40:04.962Z,0
2018-05-15T01:41:05.687Z,0
2018-05-15T01:42:06.412Z,0
2018-05-15T01:43:07.125Z,0
2018-05-15T01:44:07.854Z,0
2018-05-15T01:45:08.578Z,0
2018-05-15T01:46:09.293Z,0
2018-05-15T01:47:10.007Z,0
2018-05-15T01:48:10.721Z,0
2018-05-15T01:49:11.447Z,0
2018-05-15T01:50:12.173Z,0
2018-05-15T01:51:12.887Z,0
2018-05-15T01:52:13.614Z,0
2018-05-15T01:53:14.328Z,0
2018-05-15T01:54:15.042Z,0
2018-05-15T01:55:15.756Z,0
2018-05-15T01:56:16.470Z,0
2018-05-15T01:57:17.183Z,0
2018-05-15T01:58:17.896Z,0
2018-05-15T01:59:18.609Z,0
2018-05-15T02:00:19.322Z,0
2018-05-15T02:01:20.035Z,0
2018-05-15T02:02:20.750Z,0
2018-05-15T02:03:21.463Z,0
2018-05-15T02:04:22.174Z,0
2018-05-15T02:05:22.888Z,0
2018-05-15T02:06:23.602Z,0
2018-05-15T02:07:24.313Z,0
2018-05-15T02:08:25.026Z,0
2018-05-15T02:09:25.740Z,0
2018-05-15T02:10:26.469Z,0
2018-05-15T02:11:27.194Z,0
2018-05-15T02:12:27.908Z,0
2018-05-15T02:13:28.623Z,0
2018-05-15T02:14:29.341Z,0
2018-05-15T02:15:30.049Z,0
2018-05-15T02:16:30.766Z,0
2018-05-15T02:17:31.494Z,0
2018-05-15T02:18:32.208Z,0
2018-05-15T02:19:32.921Z,0
2018-05-15T02:20:33.634Z,0
2018-05-15T02:21:34.348Z,0
2018-05-15T02:22:35.063Z,0
2018-05-15T02:23:35.781Z,0
2018-05-15T02:24:36.493Z,0
2018-05-15T02:25:37.218Z,0
2018-05-15T02:26:37.944Z,0
2018-05-15T02:27:38.671Z,0
2018-05-15T02:28:39.384Z,0
2018-05-15T02:29:40.112Z,0
2018-05-15T02:30:40.844Z,0
2018-05-15T02:31:41.552Z,0
2018-05-15T02:32:42.269Z,0
2018-05-15T02:33:42.980Z,0
2018-05-15T02:34:43.710Z,0
2018-05-15T02:35:44.425Z,0
2018-05-15T02:36:45.151Z,0
2018-05-15T02:37:45.865Z,0
2018-05-15T02:38:46.577Z,0
2018-05-15T02:39:47.290Z,0
2018-05-15T02:40:48.005Z,0
2018-05-15T02:41:48.717Z,0
2018-05-15T02:42:49.447Z,0
2018-05-15T02:43:50.169Z,0
2018-05-15T02:44:50.884Z,0
2018-05-15T02:45:51.612Z,0
2018-05-15T02:46:52.326Z,0
2018-05-15T02:47:53.041Z,0
2018-05-15T02:48:53.753Z,0
2018-05-15T02:49:54.481Z,0
2018-05-15T02:50:55.193Z,0
2018-05-15T02:51:55.906Z,0
2018-05-15T02:52:56.631Z,0
2018-05-15T02:53:57.356Z,0
2018-05-15T02:54:58.071Z,0
2018-05-15T02:55:58.788Z,0
2018-05-15T02:56:59.506Z,0
2018-05-15T02:58:00.217Z,0
2018-05-15T02:59:00.931Z,0
2018-05-15T03:00:01.658Z,0
2018-05-15T03:01:02.373Z,4
2018-05-15T03:02:03.087Z,4
2018-05-15T03:03:03.804Z,0
2018-05-15T03:04:04.528Z,0
2018-05-15T03:05:05.243Z,4
2018-05-15T03:06:05.971Z,4
2018-05-15T03:07:06.684Z,4
2018-05-15T03:08:07.398Z,4
2018-05-15T03:09:08.113Z,4
2018-05-15T03:10:08.831Z,8
2018-05-15T03:11:09.541Z,8
2018-05-15T03:12:10.255Z,8
2018-05-15T03:13:10.969Z,12
2018-05-15T03:14:11.694Z,12
2018-05-15T03:15:12.411Z,16
2018-05-15T03:16:13.127Z,12
2018-05-15T03:17:13.842Z,16
2018-05-15T03:18:14.556Z,20
2018-05-15T03:19:15.272Z,20
2018-05-15T03:20:15.989Z,24
2018-05-15T03:21:16.704Z,28
2018-05-15T03:22:17.423Z,32
2018-05-15T03:23:18.138Z,36
2018-05-15T03:24:18.858Z,40
2018-05-15T03:25:19.571Z,44
2018-05-15T03:26:20.288Z,52
2018-05-15T03:27:20.999Z,60
2018-05-15T03:28:21.727Z,64
2018-05-15T03:29:22.455Z,72
2018-05-15T03:30:23.171Z,76
2018-05-15T03:31:23.885Z,88
2018-05-15T03:32:24.601Z,96
2018-05-15T03:33:25.330Z,108
2018-05-15T03:34:26.047Z,116
2018-05-15T03:35:26.761Z,128
2018-05-15T03:36:27.477Z,140
2018-05-15T03:37:28.196Z,152
2018-05-15T03:38:28.912Z,164
2018-05-15T03:39:29.687Z,176
2018-05-15T03:40:30.344Z,192
2018-05-15T03:41:31.057Z,204
2018-05-15T03:42:31.774Z,220
2018-05-15T03:43:32.492Z,236
2018-05-15T03:44:33.209Z,252
2018-05-15T03:45:33.939Z,272
2018-05-15T03:46:34.658Z,288
2018-05-15T03:47:35.376Z,304
2018-05-15T03:48:36.093Z,328
2018-05-15T03:49:36.810Z,340
2018-05-15T03:50:37.527Z,360
2018-05-15T03:51:38.244Z,384
2018-05-15T03:52:38.964Z,404
2018-05-15T03:53:39.680Z,428
2018-05-15T03:54:40.400Z,448
2018-05-15T03:55:41.114Z,468
2018-05-15T03:56:41.832Z,496
2018-05-15T03:57:42.549Z,516
2018-05-15T03:58:43.267Z,540
2018-05-15T03:59:43.984Z,564
2018-05-15T04:00:44.700Z,588
2018-05-15T04:01:45.417Z,612
2018-05-15T04:02:46.141Z,636
2018-05-15T04:03:46.856Z,656
2018-05-15T04:04:47.585Z,684
2018-05-15T04:05:48.302Z,708
2018-05-15T04:06:49.019Z,732
2018-05-15T04:07:49.738Z,760
2018-05-15T04:08:50.453Z,784
2018-05-15T04:09:51.171Z,804
2018-05-15T04:10:51.961Z,832
2018-05-15T04:11:52.609Z,860
2018-05-15T04:12:53.328Z,884
2018-05-15T04:13:54.042Z,908
2018-05-15T04:14:54.760Z,932
2018-05-15T04:15:55.477Z,960
2018-05-15T04:16:56.195Z,984
2018-05-15T04:17:56.931Z,1008
2018-05-15T04:18:57.650Z,1032
2018-05-15T04:19:58.381Z,1060
2018-05-15T04:20:59.101Z,1084
2018-05-15T04:21:59.832Z,1104
2018-05-15T04:23:00.550Z,1128
2018-05-15T04:24:01.343Z,1148
2018-05-15T04:25:02.003Z,1172
2018-05-15T04:26:02.722Z,1192
2018-05-15T04:27:03.441Z,1216
2018-05-15T04:28:04.289Z,1236
2018-05-15T04:29:04.881Z,1264
2018-05-15T04:30:05.598Z,1284
2018-05-15T04:31:06.317Z,1308
2018-05-15T04:32:07.034Z,1332
2018-05-15T04:33:07.752Z,1352
2018-05-15T04:34:08.472Z,1380
2018-05-15T04:35:09.312Z,1408
2018-05-15T04:36:09.910Z,1432
2018-05-15T04:37:10.629Z,1456
2018-05-15T04:38:11.349Z,1480
2018-05-15T04:39:12.081Z,1504
2018-05-15T04:40:12.801Z,1524
2018-05-15T04:41:13.523Z,1544
2018-05-15T04:42:14.239Z,1564
2018-05-15T04:43:14.960Z,1592
2018-05-15T04:44:15.677Z,1616
2018-05-15T04:45:16.395Z,1640
2018-05-15T04:46:17.126Z,1664
2018-05-15T04:47:17.843Z,1688
2018-05-15T04:48:18.572Z,1708
2018-05-15T04:49:19.308Z,1724
2018-05-15T04:50:20.024Z,1744
2018-05-15T04:51:20.743Z,1768
2018-05-15T04:52:21.476Z,1784
2018-05-15T04:53:22.209Z,1804
2018-05-15T04:54:22.928Z,1828
2018-05-15T04:55:23.648Z,1848
2018-05-15T04:56:24.369Z,1868
2018-05-15T04:57:25.104Z,1888
2018-05-15T04:58:25.819Z,1904
2018-05-15T04:59:26.537Z,1928
2018-05-15T05:00:27.270Z,1948
2018-05-15T05:01:28.001Z,1972
2018-05-15T05:02:28.719Z,1996
2018-05-15T05:03:29.449Z,2016
2018-05-15T05:04:30.168Z,2040
2018-05-15T05:05:30.888Z,2060
2018-05-15T05:06:31.618Z,2084
2018-05-15T05:07:32.336Z,2104
2018-05-15T05:08:33.055Z,2124
2018-05-15T05:09:33.774Z,2144
2018-05-15T05:10:34.496Z,2164
2018-05-15T05:11:35.215Z,2184
2018-05-15T05:12:35.948Z,2204
2018-05-15T05:13:36.666Z,2228
2018-05-15T05:14:37.398Z,2252
2018-05-15T05:15:38.119Z,2292
2018-05-15T05:16:38.840Z,2308
2018-05-15T05:17:39.559Z,2340
2018-05-15T05:18:40.280Z,2360
2018-05-15T05:19:41.000Z,2380
2018-05-15T05:20:41.720Z,2396
2018-05-15T05:21:42.437Z,2416
2018-05-15T05:22:43.159Z,2436
2018-05-15T05:23:43.880Z,2452
2018-05-15T05:24:44.611Z,2480
2018-05-15T05:25:45.332Z,2500
2018-05-15T05:26:46.049Z,2524
2018-05-15T05:27:46.780Z,2544
2018-05-15T05:28:47.499Z,2564
2018-05-15T05:29:48.216Z,2588
2018-05-15T05:30:48.947Z,2612
2018-05-15T05:31:49.667Z,2632
2018-05-15T05:32:50.386Z,2660
2018-05-15T05:33:51.109Z,2688
2018-05-15T05:34:51.824Z,2708
2018-05-15T05:35:52.545Z,2728
2018-05-15T05:36:53.277Z,2752
2018-05-15T05:37:54.022Z,2768
2018-05-15T05:38:54.762Z,2788
2018-05-15T05:39:55.495Z,2808
2018-05-15T05:40:56.214Z,2832
2018-05-15T05:41:56.934Z,2860
2018-05-15T05:42:57.659Z,2880
2018-05-15T05:43:58.389Z,2908
2018-05-15T05:44:59.111Z,2928
2018-05-15T05:45:59.830Z,2948
2018-05-15T05:47:00.569Z,2964
2018-05-15T05:48:01.297Z,2980
2018-05-15T05:49:02.017Z,3000
2018-05-15T05:50:02.751Z,3028
2018-05-15T05:51:03.482Z,3056
2018-05-15T05:52:04.260Z,3088
2018-05-15T05:53:04.933Z,3120
2018-05-15T05:54:05.652Z,3136
2018-05-15T05:55:06.371Z,3168
2018-05-15T05:56:07.091Z,3192
2018-05-15T05:57:07.824Z,3212
2018-05-15T05:58:08.546Z,3236
2018-05-15T05:59:09.266Z,3252
2018-05-15T06:00:09.986Z,3276
2018-05-15T06:01:10.719Z,3284
2018-05-15T06:02:11.439Z,3296
2018-05-15T06:03:12.162Z,3312
2018-05-15T06:04:12.895Z,3324
2018-05-15T06:05:13.616Z,3344
2018-05-15T06:06:14.337Z,3368
2018-05-15T06:07:15.164Z,3396
2018-05-15T06:08:15.783Z,3420
2018-05-15T06:09:16.504Z,3444
2018-05-15T06:10:17.240Z,3468
2018-05-15T06:11:17.963Z,3492
2018-05-15T06:12:18.685Z,3520
2018-05-15T06:13:19.417Z,3552
2018-05-15T06:14:20.235Z,3588
2018-05-15T06:15:20.860Z,3628
2018-05-15T06:16:21.580Z,3664
2018-05-15T06:17:22.301Z,3700
2018-05-15T06:18:23.021Z,3744
2018-05-15T06:19:23.740Z,3788
2018-05-15T06:20:24.467Z,3832
2018-05-15T06:21:25.183Z,3864
2018-05-15T06:22:25.905Z,3896
2018-05-15T06:23:26.627Z,3940
2018-05-15T06:24:27.351Z,3988
2018-05-15T06:25:28.069Z,4032
2018-05-15T06:26:28.791Z,4076
2018-05-15T06:27:29.515Z,4136
2018-05-15T06:28:30.232Z,4180
2018-05-15T06:29:30.954Z,4228
2018-05-15T06:30:31.678Z,4280
2018-05-15T06:31:32.410Z,4332
2018-05-15T06:32:33.131Z,4380
2018-05-15T06:33:33.854Z,4424
2018-05-15T06:34:34.573Z,4480
2018-05-15T06:35:35.297Z,4528
2018-05-15T06:36:36.016Z,4576
2018-05-15T06:37:36.738Z,4624
2018-05-15T06:38:37.504Z,4668
2018-05-15T06:39:38.188Z,4704
2018-05-15T06:40:38.918Z,4748
2018-05-15T06:41:39.640Z,4780
2018-05-15T06:42:40.359Z,4812
2018-05-15T06:43:41.094Z,4844
2018-05-15T06:44:41.846Z,4876
2018-05-15T06:45:42.552Z,4908
2018-05-15T06:46:43.285Z,4956
2018-05-15T06:47:44.008Z,4976
2018-05-15T06:48:44.741Z,5016
2018-05-15T06:49:45.464Z,5052
2018-05-15T06:50:46.183Z,5080
2018-05-15T06:51:46.904Z,5092
2018-05-15T06:52:47.626Z,5112
2018-05-15T06:53:48.353Z,5116
2018-05-15T06:54:49.083Z,5140
2018-05-15T06:55:49.803Z,5172
2018-05-15T06:56:50.539Z,5196
2018-05-15T06:57:51.260Z,5236
2018-05-15T06:58:51.983Z,5276
2018-05-15T06:59:52.707Z,5332
2018-05-15T07:00:53.428Z,5400
2018-05-15T07:01:54.193Z,5440
2018-05-15T07:02:54.876Z,5540
2018-05-15T07:03:55.613Z,5640
2018-05-15T07:04:56.349Z,5752
2018-05-15T07:05:57.080Z,5856
2018-05-15T07:06:57.802Z,5960
2018-05-15T07:07:58.525Z,6084
2018-05-15T07:08:59.252Z,6236
2018-05-15T07:09:59.977Z,6392
2018-05-15T07:11:00.698Z,6548
2018-05-15T07:12:01.420Z,6744
2018-05-15T07:13:02.148Z,6956
2018-05-15T07:14:02.976Z,7184
2018-05-15T07:15:03.608Z,7428
2018-05-15T07:16:04.337Z,7664
2018-05-15T07:17:05.063Z,7904
2018-05-15T07:18:05.793Z,8172
2018-05-15T07:19:06.535Z,8420
2018-05-15T07:20:07.265Z,8656
2018-05-15T07:21:08.011Z,8884
2018-05-15T07:22:08.743Z,9160
2018-05-15T07:23:09.468Z,9540
2018-05-15T07:24:10.202Z,10200
2018-05-15T07:25:10.940Z,11840
2018-05-15T07:26:11.669Z,19808
2018-05-15T07:27:12.403Z,36288
2018-05-15T07:28:13.132Z,47872
2018-05-15T07:29:13.876Z,50016
2018-05-15T07:30:14.618Z,51520
2018-05-15T07:31:15.349Z,55712
2018-05-15T07:32:16.082Z,57152
2018-05-15T07:33:16.891Z,58432
2018-05-15T07:34:17.546Z,58752
2018-05-15T07:35:18.278Z,58112
2018-05-15T07:36:19.025Z,58624
2018-05-15T07:37:19.757Z,60160
2018-05-15T07:38:20.491Z,61024
2018-05-15T07:39:21.236Z,61984
2018-05-15T07:40:22.050Z,61568
2018-05-15T07:41:22.712Z,62592
2018-05-15T07:42:23.443Z,63008
2018-05-15T07:43:24.190Z,62720
2018-05-15T07:44:24.927Z,61952
2018-05-15T07:45:25.660Z,65312
2018-05-15T07:46:26.405Z,65472
2018-05-15T07:47:27.136Z,51104
2018-05-15T07:48:27.868Z,58944
2018-05-15T07:49:28.602Z,66848
2018-05-15T07:50:29.340Z,69056
2018-05-15T07:51:30.071Z,64896
2018-05-15T07:52:30.804Z,68128
2018-05-15T07:53:31.546Z,67232
2018-05-15T07:54:32.269Z,67392
2018-05-15T07:55:33.002Z,65760
2018-05-15T07:56:33.738Z,67968
2018-05-15T07:57:34.471Z,73984
2018-05-15T07:58:35.204Z,72352
2018-05-15T07:59:35.939Z,72128
2018-05-15T08:00:36.673Z,74528
2018-05-15T08:01:37.408Z,74336
2018-05-15T08:02:38.148Z,73088
2018-05-15T08:03:38.887Z,72512
2018-05-15T08:04:39.620Z,72768
2018-05-15T08:05:40.353Z,76416
2018-05-15T08:06:41.089Z,80192
2018-05-15T08:07:41.827Z,80736
2018-05-15T08:08:42.558Z,81376
2018-05-15T08:09:43.294Z,80832
2018-05-15T08:10:44.028Z,80256
2018-05-15T08:11:44.760Z,75776
2018-05-15T08:12:45.501Z,75808
2018-05-15T08:13:46.240Z,77600
2018-05-15T08:14:46.977Z,78368
2018-05-15T08:15:47.711Z,78912
2018-05-15T08:16:48.446Z,77568
2018-05-15T08:17:49.184Z,77504
2018-05-15T08:18:49.921Z,76864
2018-05-15T08:19:50.658Z,75648
2018-05-15T08:20:51.396Z,78336
2018-05-15T08:21:52.134Z,74880
2018-05-15T08:22:52.870Z,76000
2018-05-15T08:23:53.618Z,72224
2018-05-15T08:24:54.361Z,74496
2018-05-15T08:25:55.115Z,75648
2018-05-15T08:26:55.859Z,73152
2018-05-15T08:27:56.600Z,77920
2018-05-15T08:28:57.342Z,81952
2018-05-15T08:29:58.100Z,80416
2018-05-15T08:30:58.857Z,80064
2018-05-15T08:31:59.600Z,78848
2018-05-15T08:33:00.344Z,77664
2018-05-15T08:34:01.084Z,81952
2018-05-15T08:35:01.839Z,84960
2018-05-15T08:36:02.586Z,76416
2018-05-15T08:37:03.330Z,79520
2018-05-15T08:38:04.089Z,80000
2018-05-15T08:39:04.831Z,82208
2018-05-15T08:40:05.586Z,80480
2018-05-15T08:41:06.343Z,79232
2018-05-15T08:42:07.102Z,81984
2018-05-15T08:43:07.856Z,84544
2018-05-15T08:44:08.593Z,85344
2018-05-15T08:45:09.334Z,85952
2018-05-15T08:46:10.076Z,85344
2018-05-15T08:47:10.815Z,81760
2018-05-15T08:48:11.567Z,79456
2018-05-15T08:49:12.310Z,82560
2018-05-15T08:50:13.052Z,77760
2018-05-15T08:51:13.796Z,68544
2018-05-15T08:52:14.538Z,70624
2018-05-15T08:53:15.280Z,79360
2018-05-15T08:54:16.021Z,80064
2018-05-15T08:55:16.766Z,81600
2018-05-15T08:56:17.509Z,79040
2018-05-15T08:57:18.266Z,77792
2018-05-15T08:58:19.009Z,81760
2018-05-15T08:59:19.752Z,81952
2018-05-15T09:00:20.508Z,81216
2018-05-15T09:01:21.250Z,84544
2018-05-15T09:02:21.990Z,83872
2018-05-15T09:03:22.745Z,80544
2018-05-15T09:04:23.488Z,82048
2018-05-15T09:05:24.231Z,82304
2018-05-15T09:06:24.976Z,80416
2018-05-15T09:07:25.719Z,80800
2018-05-15T09:08:26.460Z,81056
2018-05-15T09:09:27.206Z,89088
2018-05-15T09:10:27.963Z,88000
2018-05-15T09:11:28.704Z,88864
2018-05-15T09:12:29.467Z,90720
2018-05-15T09:13:30.214Z,85984
2018-05-15T09:14:30.957Z,86368
2018-05-15T09:15:31.699Z,84064
2018-05-15T09:16:32.437Z,88608
2018-05-15T09:17:33.184Z,87936
2018-05-15T09:18:33.917Z,85888
2018-05-15T09:19:34.664Z,85248
2018-05-15T09:20:35.402Z,88384
2018-05-15T09:21:36.143Z,88416
2018-05-15T09:22:36.882Z,86208
2018-05-15T09:23:37.629Z,83232
2018-05-15T09:24:38.368Z,84736
2018-05-15T09:25:39.108Z,85120
2018-05-15T09:26:39.852Z,85280
2018-05-15T09:27:40.611Z,79040
2018-05-15T09:28:41.366Z,82208
2018-05-15T09:29:42.194Z,87264
2018-05-15T09:30:42.863Z,84256
2018-05-15T09:31:43.621Z,82592
2018-05-15T09:32:44.359Z,84064
2018-05-15T09:33:45.102Z,86752
2018-05-15T09:34:45.846Z,84672
2018-05-15T09:35:46.588Z,83680
2018-05-15T09:36:47.341Z,87584
2018-05-15T09:37:48.095Z,85152
2018-05-15T09:38:48.846Z,82432
2018-05-15T09:39:49.601Z,79392
2018-05-15T09:40:50.339Z,81664
2018-05-15T09:41:51.093Z,78976
2018-05-15T09:42:51.845Z,77888
2018-05-15T09:43:52.582Z,61760
2018-05-15T09:44:53.322Z,65056
2018-05-15T09:45:54.065Z,69472
2018-05-15T09:46:54.825Z,80160
2018-05-15T09:47:55.550Z,62720
2018-05-15T09:48:56.287Z,76480
2018-05-15T09:49:57.028Z,74528
2018-05-15T09:50:57.771Z,73536
2018-05-15T09:51:58.506Z,69984
2018-05-15T09:52:59.244Z,87008
2018-05-15T09:53:59.981Z,92192
2018-05-15T09:55:00.726Z,95744
2018-05-15T09:56:01.467Z,96480
2018-05-15T09:57:02.206Z,92864
2018-05-15T09:58:02.944Z,88960
2018-05-15T09:59:03.689Z,93344
2018-05-15T10:00:04.440Z,95520
2018-05-15T10:01:05.179Z,94496
2018-05-15T10:02:05.919Z,95232
2018-05-15T10:03:06.658Z,83456
2018-05-15T10:04:07.396Z,91424
2018-05-15T10:05:08.137Z,93152
2018-05-15T10:06:08.878Z,79776
2018-05-15T10:07:09.618Z,80256
2018-05-15T10:08:10.453Z,87936
2018-05-15T10:09:11.099Z,78080
2018-05-15T10:10:11.842Z,85984
2018-05-15T10:11:12.584Z,85024
2018-05-15T10:12:13.337Z,82784
2018-05-15T10:13:14.076Z,82656
2018-05-15T10:14:14.916Z,87776
2018-05-15T10:15:15.584Z,90272
2018-05-15T10:16:16.322Z,93888
2018-05-15T10:17:17.057Z,91648
2018-05-15T10:18:17.798Z,88864
2018-05-15T10:19:18.540Z,92256
2018-05-15T10:20:19.279Z,90816
2018-05-15T10:21:20.022Z,85024
2018-05-15T10:22:20.766Z,75104
2018-05-15T10:23:21.506Z,79456
2018-05-15T10:24:22.245Z,85120
2018-05-15T10:25:22.987Z,94624
2018-05-15T10:26:23.813Z,93888
2018-05-15T10:27:24.478Z,82624
2018-05-15T10:28:25.216Z,72096
2018-05-15T10:29:25.967Z,92672
2018-05-15T10:30:26.720Z,85408
2018-05-15T10:31:27.457Z,71680
2018-05-15T10:32:28.197Z,66400
2018-05-15T10:33:28.939Z,79712
2018-05-15T10:34:29.676Z,78112
2018-05-15T10:35:30.421Z,75040
2018-05-15T10:36:31.192Z,80576
2018-05-15T10:37:31.915Z,82368
2018-05-15T10:38:32.666Z,80512
2018-05-15T10:39:33.410Z,82816
2018-05-15T10:40:34.167Z,86080
2018-05-15T10:41:34.909Z,86880
2018-05-15T10:42:35.651Z,86240
2018-05-15T10:43:36.391Z,85120
2018-05-15T10:44:37.130Z,90048
2018-05-15T10:45:37.870Z,88768
2018-05-15T10:46:38.611Z,87232
2018-05-15T10:47:39.349Z,92640
2018-05-15T10:48:40.091Z,91136
2018-05-15T10:49:40.829Z,94144
2018-05-15T10:50:41.569Z,95040
2018-05-15T10:51:42.317Z,92480
2018-05-15T10:52:43.060Z,90816
2018-05-15T10:53:43.805Z,93728
2018-05-15T10:54:44.556Z,92928
2018-05-15T10:55:45.294Z,85600
2018-05-15T10:56:46.047Z,91712
2018-05-15T10:57:46.789Z,93312
2018-05-15T10:58:47.532Z,86816
2018-05-15T10:59:48.272Z,84416
2018-05-15T11:00:49.013Z,85056
2018-05-15T11:01:49.755Z,83904
2018-05-15T11:02:50.502Z,84384
2018-05-15T11:03:51.249Z,78784
2018-05-15T11:04:51.989Z,77888
2018-05-15T11:05:52.728Z,84512
2018-05-15T11:06:53.468Z,79616
2018-05-15T11:07:54.209Z,68256
2018-05-15T11:08:54.948Z,46912
2018-05-15T11:09:55.688Z,54624
2018-05-15T11:10:56.433Z,74112
2018-05-15T11:11:57.183Z,82848
2018-05-15T11:12:57.924Z,87200
2018-05-15T11:13:58.681Z,83744
2018-05-15T11:14:59.420Z,83680
2018-05-15T11:16:00.164Z,83808
2018-05-15T11:17:00.904Z,49792
2018-05-15T11:18:01.641Z,71712
2018-05-15T11:19:02.393Z,81856
2018-05-15T11:20:03.133Z,83104
2018-05-15T11:21:03.876Z,81504
2018-05-15T11:22:04.633Z,70880
2018-05-15T11:23:05.393Z,75904
2018-05-15T11:24:06.127Z,66688
2018-05-15T11:25:06.869Z,34272
2018-05-15T11:26:07.609Z,77504
2018-05-15T11:27:08.352Z,85760
2018-05-15T11:28:09.094Z,86400
2018-05-15T11:29:09.845Z,83264
2018-05-15T11:30:10.581Z,84160
2018-05-15T11:31:11.333Z,88192
2018-05-15T11:32:12.088Z,85856
2018-05-15T11:33:12.836Z,80992
2018-05-15T11:34:13.576Z,83904
2018-05-15T11:35:14.314Z,82784
2018-05-15T11:36:15.052Z,85856
2018-05-15T11:37:15.794Z,85984
2018-05-15T11:38:16.531Z,84992
2018-05-15T11:39:17.271Z,88768
2018-05-15T11:40:18.010Z,90784
2018-05-15T11:41:18.749Z,85344
2018-05-15T11:42:19.493Z,80160
2018-05-15T11:43:20.230Z,87584
2018-05-15T11:44:20.969Z,90208
2018-05-15T11:45:21.709Z,88960
2018-05-15T11:46:22.452Z,87456
2018-05-15T11:47:23.216Z,85696
2018-05-15T11:48:24.394Z,86240
2018-05-15T11:49:25.607Z,85376
2018-05-15T11:50:26.435Z,85152
2018-05-15T11:51:27.241Z,79648
2018-05-15T11:52:27.402Z,84096
2018-05-15T11:53:27.664Z,80992
2018-05-15T11:54:28.406Z,86688
2018-05-15T11:55:35.291Z,82848
2018-05-15T11:56:29.961Z,81312
2018-05-15T11:57:30.628Z,84768
2018-05-15T11:58:31.379Z,80800
2018-05-15T11:59:32.117Z,76224
2018-05-15T12:00:32.859Z,84544
2018-05-15T12:01:33.599Z,83328
2018-05-15T12:02:34.368Z,81920
2018-05-15T12:03:35.078Z,86848
2018-05-15T12:04:35.820Z,90304
2018-05-15T12:05:36.557Z,80928
2018-05-15T12:06:37.330Z,82080
2018-05-15T12:07:38.033Z,83744
2018-05-15T12:08:38.771Z,85088
2018-05-15T12:09:39.508Z,82464
2018-05-15T12:10:40.346Z,79968
2018-05-15T12:11:40.990Z,84864
2018-05-15T12:12:41.721Z,80608
2018-05-15T12:13:42.466Z,73792
2018-05-15T12:14:43.215Z,82272
2018-05-15T12:15:43.955Z,80544
2018-05-15T12:16:44.695Z,74368
2018-05-15T12:17:45.435Z,83392
2018-05-15T12:18:46.175Z,81088
2018-05-15T12:19:46.913Z,80320
2018-05-15T12:20:47.656Z,88256
2018-05-15T12:21:48.406Z,83872
2018-05-15T12:22:49.160Z,83104
2018-05-15T12:23:49.898Z,83744
2018-05-15T12:24:50.640Z,81120
2018-05-15T12:25:51.378Z,82752
2018-05-15T12:26:52.132Z,86816
2018-05-15T12:27:52.869Z,84064
2018-05-15T12:28:53.609Z,89984
2018-05-15T12:29:54.428Z,85536
2018-05-15T12:30:55.085Z,76160
2018-05-15T12:31:55.835Z,69664
2018-05-15T12:32:56.586Z,68544
2018-05-15T12:33:57.323Z,70816
2018-05-15T12:34:58.065Z,70688
2018-05-15T12:35:58.803Z,78464
2018-05-15T12:36:59.542Z,90528
2018-05-15T12:38:00.281Z,84800
2018-05-15T12:39:01.021Z,79008
2018-05-15T12:40:01.759Z,84064
2018-05-15T12:41:02.498Z,82272
2018-05-15T12:42:03.382Z,75840
2018-05-15T12:43:04.002Z,76576
2018-05-15T12:44:04.740Z,81248
2018-05-15T12:45:05.480Z,79264
2018-05-15T12:46:06.219Z,80128
2018-05-15T12:47:06.959Z,84224
2018-05-15T12:48:07.744Z,84800
2018-05-15T12:49:08.447Z,84704
2018-05-15T12:50:09.190Z,87008
2018-05-15T12:51:09.926Z,76480
2018-05-15T12:52:10.664Z,74880
2018-05-15T12:53:11.407Z,84352
2018-05-15T12:54:12.281Z,83488
2018-05-15T12:55:12.885Z,82816
2018-05-15T12:56:13.624Z,80992
2018-05-15T12:57:14.373Z,82912
2018-05-15T12:58:15.113Z,82592
2018-05-15T12:59:15.861Z,78752
2018-05-15T13:00:16.611Z,77856
2018-05-15T13:01:17.354Z,78112
2018-05-15T13:02:18.089Z,76224
2018-05-15T13:03:18.831Z,78912
2018-05-15T13:04:19.584Z,76032
2018-05-15T13:05:20.321Z,77536
2018-05-15T13:06:21.059Z,79680
2018-05-15T13:07:21.800Z,77376
2018-05-15T13:08:22.548Z,74816
2018-05-15T13:09:23.298Z,74592
2018-05-15T13:10:24.049Z,74144
2018-05-15T13:11:24.788Z,68544
2018-05-15T13:12:25.525Z,68416
2018-05-15T13:13:26.267Z,73024
2018-05-15T13:14:27.005Z,76800
2018-05-15T13:15:27.744Z,77312
2018-05-15T13:16:28.484Z,76128
2018-05-15T13:17:29.239Z,71936
2018-05-15T13:18:30.007Z,74656
2018-05-15T13:19:30.711Z,74112
2018-05-15T13:20:31.453Z,73536
2018-05-15T13:21:32.193Z,74848
2018-05-15T13:22:32.943Z,72672
2018-05-15T13:23:33.682Z,72736
2018-05-15T13:24:34.432Z,73440
2018-05-15T13:25:35.156Z,68800
2018-05-15T13:26:35.896Z,69600
2018-05-15T13:27:36.640Z,68768
2018-05-15T13:28:37.384Z,67360
2018-05-15T13:29:38.130Z,70208
2018-05-15T13:30:38.876Z,67968
2018-05-15T13:31:39.620Z,68992
2018-05-15T13:32:40.372Z,68320
2018-05-15T13:33:41.111Z,66496
2018-05-15T13:34:41.850Z,69056
2018-05-15T13:35:42.587Z,69632
2018-05-15T13:36:43.327Z,68800
2018-05-15T13:37:44.067Z,68448